• Join FlightAware (Why Join?)
  • Login
  • US Flag 
11:26PM EST


 

Airport Tracker/Info


-or-


 

Live Flight TrackerFlight Track Log ✈ TYR1106 ✈ 23-Apr-2013 ✈ EDDF / FRA - LOWS / SZG

Flight Track Log - Related Links

Times and Time Zones

All times are in EDT time to prevent confusion due to time zone crossing. See the TYR1106 flight status page for this flight to view local times or setup timezone preferences in your user account.

Time Position Orientation Groundspeed Altitude Reporting Facility
EDT Latitude Longitude Course Direction KTS MPH feet Rate Location/Type
11:11AM 49.8418 8.9416 126° Southeast  Level Estimated
11:12AM 49.7800 9.0737 126° Southeast  Level Estimated
11:13AM 49.7180 9.2055 126° Southeast  Level Estimated
11:14AM 49.6558 9.3370 126° Southeast  Level Estimated
11:15AM 49.5935 9.4681 126° Southeast  Level Estimated
11:16AM 49.5311 9.5989 126° Southeast  Level Estimated
11:17AM 49.4685 9.7294 126° Southeast  Level Estimated
11:18AM 49.4058 9.8595 127° Southeast  Level Estimated
11:19AM 49.3429 9.9893 127° Southeast  Level Estimated
11:20AM 49.2799 10.1187 127° Southeast  Level Estimated
11:21AM 49.2167 10.2479 127° Southeast  Level Estimated
11:22AM 49.1534 10.3767 127° Southeast  Level Estimated
11:23AM 49.0900 10.5051 127° Southeast  Level Estimated
11:24AM 49.0264 10.6333 127° Southeast  Level Estimated
11:25AM 48.9627 10.7611 127° Southeast  Level Estimated
11:26AM 48.8988 10.8886 127° Southeast  Level Estimated
11:27AM 48.8348 11.0157 127° Southeast  Level Estimated
11:28AM 48.7706 11.1426 127° Southeast  Level Estimated
11:29AM 48.7063 11.2691 128° Southeast  Level Estimated
11:30AM 48.6419 11.3953 128° Southeast  Level Estimated
11:31AM 48.5773 11.5212 128° Southeast  Level Estimated
11:32AM 48.5126 11.6467 128° Southeast  Level Estimated
11:33AM 48.4478 11.7719 128° Southeast  Level Estimated
11:34AM 48.3828 11.8968 128° Southeast  Level Estimated
11:35AM 48.3177 12.0214 128° Southeast  Level Estimated
11:36AM 48.2524 12.1457 128° Southeast  Level Estimated
11:37AM 48.1870 12.2697 128° Southeast  Level Estimated
11:38AM 48.1215 12.3933 128° Southeast  Level Estimated
11:39AM 48.0559 12.5166 129° Southeast  Level Estimated
11:40AM 47.9901 12.6396 129° Southeast  Level Estimated
11:41AM 47.9242 12.7623 129° Southeast  Level Estimated
11:42AM 47.8581 12.8847 129° Southeast  Level Estimated
11:43AM 47.7933 13.0043 129° Southeast  Level Estimated
11:44AM 47.7933 13.0043 27° Northeast  Level Estimated
11:45AM 47.7933 13.0043 27° Northeast  Level Estimated
11:46AM 47.7933 13.0043 27° Northeast  Level Estimated
11:47AM 47.7933 13.0043 27° Northeast  Level Estimated
11:48AM 47.7933 13.0043 27° Northeast  Level Estimated
11:49AM 47.7933 13.0043 27° Northeast  Level Estimated
11:50AM 47.7933 13.0043 27° Northeast  Level Estimated
11:51AM 47.7933 13.0043 27° Northeast  Level Estimated